Vallirana, Spain
Current Conditions -  °F | °C
As of 5:30 PM on Sunday 21 Dec 2014 (Local Time) from LEBL Reporting Station
Clear Clear  
Wind Chill: 54°   Ceiling: Unl
Heat Index: 54°   Visibility: 6mi
Dew Point: 43°   Wind: 10mph
Humidity: 67%   Direction: 340°NNW
Pressure: 30.45"   Gusts: 23mph
Location:  41.39°N, 1.93°E
Report Text: LEBL 211630Z 34009G20KT 300V040 CAVOK 12/06 Q1031 NOSIG
Loading
Personal Weather Stations






























Interactive Weather Map New forecast layout! Learn more

10-Day Weather Forecast

Advertisements
Track Severe Weather on mobile